sensor_id;sensor_type;location;lat;lon;timestamp;P1;durP1;ratioP1;P2;durP2;ratioP2
20619;SDS011;10469;42.720;23.252;2023-09-08T00:02:07;16.52;;;11.35;;
20619;SDS011;10469;42.720;23.252;2023-09-08T00:04:33;12.57;;;11.27;;
20619;SDS011;10469;42.720;23.252;2023-09-08T00:06:59;14.32;;;11.52;;
20619;SDS011;10469;42.720;23.252;2023-09-08T00:09:24;15.82;;;12.35;;
20619;SDS011;10469;42.720;23.252;2023-09-08T00:11:50;18.58;;;12.57;;
20619;SDS011;10469;42.720;23.252;2023-09-08T00:14:15;17.63;;;12.30;;
20619;SDS011;10469;42.720;23.252;2023-09-08T00:16:41;16.35;;;12.50;;
20619;SDS011;10469;42.720;23.252;2023-09-08T00:19:08;13.90;;;12.40;;
20619;SDS011;10469;42.720;23.252;2023-09-08T00:21:35;14.88;;;13.15;;
20619;SDS011;10469;42.720;23.252;2023-09-08T00:24:01;15.38;;;12.48;;
20619;SDS011;10469;42.720;23.252;2023-09-08T00:26:27;18.40;;;13.27;;
20619;SDS011;10469;42.720;23.252;2023-09-08T00:28:52;17.33;;;12.82;;
20619;SDS011;10469;42.720;23.252;2023-09-08T00:31:18;18.83;;;12.40;;
20619;SDS011;10469;42.720;23.252;2023-09-08T00:33:43;15.20;;;12.45;;
20619;SDS011;10469;42.720;23.252;2023-09-08T00:36:09;15.52;;;11.00;;
20619;SDS011;10469;42.720;23.252;2023-09-08T00:38:35;17.00;;;10.77;;
20619;SDS011;10469;42.720;23.252;2023-09-08T00:41:06;13.70;;;11.15;;
20619;SDS011;10469;42.720;23.252;2023-09-08T00:43:32;13.70;;;10.55;;
20619;SDS011;10469;42.720;23.252;2023-09-08T00:45:57;12.60;;;10.32;;
20619;SDS011;10469;42.720;23.252;2023-09-08T00:48:24;14.65;;;10.07;;
20619;SDS011;10469;42.720;23.252;2023-09-08T00:50:50;14.20;;;9.30;;
20619;SDS011;10469;42.720;23.252;2023-09-08T00:53:16;14.40;;;9.02;;
20619;SDS011;10469;42.720;23.252;2023-09-08T00:55:42;9.98;;;8.88;;
20619;SDS011;10469;42.720;23.252;2023-09-08T00:58:09;12.02;;;8.75;;
20619;SDS011;10469;42.720;23.252;2023-09-08T01:00:36;11.25;;;8.45;;
20619;SDS011;10469;42.720;23.252;2023-09-08T01:03:01;9.10;;;7.32;;
20619;SDS011;10469;42.720;23.252;2023-09-08T01:05:27;8.18;;;7.38;;
20619;SDS011;10469;42.720;23.252;2023-09-08T01:07:53;12.73;;;7.43;;
20619;SDS011;10469;42.720;23.252;2023-09-08T01:10:20;9.48;;;7.20;;
20619;SDS011;10469;42.720;23.252;2023-09-08T01:12:46;12.73;;;7.38;;
20619;SDS011;10469;42.720;23.252;2023-09-08T01:15:12;12.98;;;7.80;;
20619;SDS011;10469;42.720;23.252;2023-09-08T01:17:38;14.00;;;8.15;;
20619;SDS011;10469;42.720;23.252;2023-09-08T01:20:04;21.50;;;7.53;;
20619;SDS011;10469;42.720;23.252;2023-09-08T01:25:15;8.75;;;7.38;;
20619;SDS011;10469;42.720;23.252;2023-09-08T01:27:53;8.07;;;7.28;;
20619;SDS011;10469;42.720;23.252;2023-09-08T01:30:20;9.15;;;7.10;;
20619;SDS011;10469;42.720;23.252;2023-09-08T01:32:48;16.42;;;7.72;;
20619;SDS011;10469;42.720;23.252;2023-09-08T01:35:14;11.15;;;7.38;;
20619;SDS011;10469;42.720;23.252;2023-09-08T01:37:44;15.15;;;7.22;;
20619;SDS011;10469;42.720;23.252;2023-09-08T01:40:11;7.50;;;6.80;;
20619;SDS011;10469;42.720;23.252;2023-09-08T01:42:37;11.57;;;7.00;;
20619;SDS011;10469;42.720;23.252;2023-09-08T01:45:04;7.75;;;6.55;;
20619;SDS011;10469;42.720;23.252;2023-09-08T01:47:30;9.50;;;6.80;;
20619;SDS011;10469;42.720;23.252;2023-09-08T01:49:56;8.82;;;6.00;;
20619;SDS011;10469;42.720;23.252;2023-09-08T01:52:21;9.40;;;7.00;;
20619;SDS011;10469;42.720;23.252;2023-09-08T01:54:47;11.23;;;7.00;;
20619;SDS011;10469;42.720;23.252;2023-09-08T01:57:13;12.52;;;7.03;;
20619;SDS011;10469;42.720;23.252;2023-09-08T01:59:38;10.23;;;6.95;;
20619;SDS011;10469;42.720;23.252;2023-09-08T02:02:04;9.27;;;6.70;;
20619;SDS011;10469;42.720;23.252;2023-09-08T02:04:29;10.75;;;6.82;;
20619;SDS011;10469;42.720;23.252;2023-09-08T02:06:55;8.63;;;6.63;;
20619;SDS011;10469;42.720;23.252;2023-09-08T02:09:20;12.52;;;7.05;;
20619;SDS011;10469;42.720;23.252;2023-09-08T02:11:46;10.05;;;7.07;;
20619;SDS011;10469;42.720;23.252;2023-09-08T02:14:11;10.05;;;7.07;;
20619;SDS011;10469;42.720;23.252;2023-09-08T02:16:37;8.38;;;7.05;;
20619;SDS011;10469;42.720;23.252;2023-09-08T02:19:02;9.18;;;7.38;;
20619;SDS011;10469;42.720;23.252;2023-09-08T02:21:28;14.57;;;7.22;;
20619;SDS011;10469;42.720;23.252;2023-09-08T02:23:53;12.88;;;7.97;;
20619;SDS011;10469;42.720;23.252;2023-09-08T02:26:19;9.95;;;7.28;;
20619;SDS011;10469;42.720;23.252;2023-09-08T02:28:44;10.07;;;7.93;;
20619;SDS011;10469;42.720;23.252;2023-09-08T02:31:10;8.93;;;7.20;;
20619;SDS011;10469;42.720;23.252;2023-09-08T02:33:36;12.35;;;7.57;;
20619;SDS011;10469;42.720;23.252;2023-09-08T02:36:05;10.57;;;8.10;;
20619;SDS011;10469;42.720;23.252;2023-09-08T02:38:31;9.48;;;7.65;;
20619;SDS011;10469;42.720;23.252;2023-09-08T02:40:57;10.93;;;8.02;;
20619;SDS011;10469;42.720;23.252;2023-09-08T02:43:23;10.15;;;8.25;;
20619;SDS011;10469;42.720;23.252;2023-09-08T02:45:49;10.82;;;8.00;;
20619;SDS011;10469;42.720;23.252;2023-09-08T02:48:14;13.85;;;8.10;;
20619;SDS011;10469;42.720;23.252;2023-09-08T02:50:41;12.38;;;8.70;;
20619;SDS011;10469;42.720;23.252;2023-09-08T02:53:07;18.10;;;8.80;;
20619;SDS011;10469;42.720;23.252;2023-09-08T02:55:33;11.57;;;8.52;;
20619;SDS011;10469;42.720;23.252;2023-09-08T02:57:58;10.73;;;8.30;;
20619;SDS011;10469;42.720;23.252;2023-09-08T03:00:24;12.07;;;8.25;;
20619;SDS011;10469;42.720;23.252;2023-09-08T03:02:50;14.20;;;8.45;;
20619;SDS011;10469;42.720;23.252;2023-09-08T03:05:15;13.27;;;8.93;;
20619;SDS011;10469;42.720;23.252;2023-09-08T03:07:41;11.68;;;8.77;;
20619;SDS011;10469;42.720;23.252;2023-09-08T03:10:06;18.33;;;9.20;;
20619;SDS011;10469;42.720;23.252;2023-09-08T03:12:32;13.80;;;9.05;;
20619;SDS011;10469;42.720;23.252;2023-09-08T03:14:58;12.20;;;8.60;;
20619;SDS011;10469;42.720;23.252;2023-09-08T03:17:25;13.15;;;9.43;;
20619;SDS011;10469;42.720;23.252;2023-09-08T03:19:50;13.23;;;9.88;;
20619;SDS011;10469;42.720;23.252;2023-09-08T03:22:16;16.85;;;9.32;;
20619;SDS011;10469;42.720;23.252;2023-09-08T03:24:41;12.15;;;9.65;;
20619;SDS011;10469;42.720;23.252;2023-09-08T03:27:07;13.75;;;8.60;;
20619;SDS011;10469;42.720;23.252;2023-09-08T03:29:32;11.35;;;8.00;;
20619;SDS011;10469;42.720;23.252;2023-09-08T03:31:58;12.82;;;8.32;;
20619;SDS011;10469;42.720;23.252;2023-09-08T03:34:23;15.52;;;8.73;;
20619;SDS011;10469;42.720;23.252;2023-09-08T03:36:49;12.20;;;8.35;;
20619;SDS011;10469;42.720;23.252;2023-09-08T03:39:15;9.35;;;7.93;;
20619;SDS011;10469;42.720;23.252;2023-09-08T03:41:40;14.30;;;7.43;;
20619;SDS011;10469;42.720;23.252;2023-09-08T03:44:06;13.38;;;8.60;;
20619;SDS011;10469;42.720;23.252;2023-09-08T03:46:31;8.63;;;7.70;;
20619;SDS011;10469;42.720;23.252;2023-09-08T03:48:57;13.63;;;8.70;;
20619;SDS011;10469;42.720;23.252;2023-09-08T03:51:26;13.98;;;8.02;;
20619;SDS011;10469;42.720;23.252;2023-09-08T03:53:53;12.77;;;7.70;;
20619;SDS011;10469;42.720;23.252;2023-09-08T03:56:18;13.02;;;7.78;;
20619;SDS011;10469;42.720;23.252;2023-09-08T03:58:45;10.93;;;7.97;;
20619;SDS011;10469;42.720;23.252;2023-09-08T04:01:11;11.95;;;7.75;;
20619;SDS011;10469;42.720;23.252;2023-09-08T04:03:36;11.00;;;8.30;;
20619;SDS011;10469;42.720;23.252;2023-09-08T04:06:02;15.23;;;8.13;;
20619;SDS011;10469;42.720;23.252;2023-09-08T04:08:30;12.27;;;7.80;;
20619;SDS011;10469;42.720;23.252;2023-09-08T04:10:56;12.15;;;7.78;;
20619;SDS011;10469;42.720;23.252;2023-09-08T04:13:21;10.85;;;8.30;;
20619;SDS011;10469;42.720;23.252;2023-09-08T04:15:48;15.63;;;8.52;;
20619;SDS011;10469;42.720;23.252;2023-09-08T04:18:13;14.23;;;8.82;;
20619;SDS011;10469;42.720;23.252;2023-09-08T04:20:39;15.52;;;8.23;;
20619;SDS011;10469;42.720;23.252;2023-09-08T04:23:04;12.45;;;8.23;;
20619;SDS011;10469;42.720;23.252;2023-09-08T04:25:30;12.50;;;8.82;;
20619;SDS011;10469;42.720;23.252;2023-09-08T04:27:55;11.73;;;9.23;;
20619;SDS011;10469;42.720;23.252;2023-09-08T04:30:21;25.27;;;9.60;;
20619;SDS011;10469;42.720;23.252;2023-09-08T04:32:47;14.20;;;9.75;;
20619;SDS011;10469;42.720;23.252;2023-09-08T04:35:12;12.80;;;8.52;;
20619;SDS011;10469;42.720;23.252;2023-09-08T04:37:38;13.45;;;9.52;;
20619;SDS011;10469;42.720;23.252;2023-09-08T04:40:04;11.93;;;8.73;;
20619;SDS011;10469;42.720;23.252;2023-09-08T04:42:30;15.57;;;10.02;;
20619;SDS011;10469;42.720;23.252;2023-09-08T04:44:57;13.65;;;8.75;;
20619;SDS011;10469;42.720;23.252;2023-09-08T04:47:23;23.50;;;11.18;;
20619;SDS011;10469;42.720;23.252;2023-09-08T04:49:48;21.23;;;9.65;;
20619;SDS011;10469;42.720;23.252;2023-09-08T04:52:14;21.75;;;10.68;;
20619;SDS011;10469;42.720;23.252;2023-09-08T04:54:39;15.23;;;10.20;;
20619;SDS011;10469;42.720;23.252;2023-09-08T04:57:05;16.27;;;9.98;;
20619;SDS011;10469;42.720;23.252;2023-09-08T04:59:31;20.27;;;9.65;;
20619;SDS011;10469;42.720;23.252;2023-09-08T05:01:57;17.55;;;9.85;;
20619;SDS011;10469;42.720;23.252;2023-09-08T05:04:23;16.65;;;9.32;;
20619;SDS011;10469;42.720;23.252;2023-09-08T05:06:48;16.65;;;9.88;;
20619;SDS011;10469;42.720;23.252;2023-09-08T05:09:14;16.25;;;9.60;;
20619;SDS011;10469;42.720;23.252;2023-09-08T05:11:40;18.33;;;9.43;;
20619;SDS011;10469;42.720;23.252;2023-09-08T05:14:05;16.92;;;8.95;;
20619;SDS011;10469;42.720;23.252;2023-09-08T05:16:31;14.45;;;9.15;;
20619;SDS011;10469;42.720;23.252;2023-09-08T05:19:04;12.02;;;8.73;;
20619;SDS011;10469;42.720;23.252;2023-09-08T05:21:31;19.27;;;9.35;;
20619;SDS011;10469;42.720;23.252;2023-09-08T05:23:57;14.80;;;8.85;;
20619;SDS011;10469;42.720;23.252;2023-09-08T05:26:23;18.05;;;8.55;;
20619;SDS011;10469;42.720;23.252;2023-09-08T05:28:48;12.07;;;8.43;;
20619;SDS011;10469;42.720;23.252;2023-09-08T05:31:14;17.67;;;8.52;;
20619;SDS011;10469;42.720;23.252;2023-09-08T05:33:40;15.40;;;8.10;;
20619;SDS011;10469;42.720;23.252;2023-09-08T05:36:05;14.32;;;8.70;;
20619;SDS011;10469;42.720;23.252;2023-09-08T05:38:31;14.65;;;8.50;;
20619;SDS011;10469;42.720;23.252;2023-09-08T05:40:56;14.90;;;8.95;;
20619;SDS011;10469;42.720;23.252;2023-09-08T05:43:23;18.52;;;8.90;;
20619;SDS011;10469;42.720;23.252;2023-09-08T05:45:50;24.67;;;8.40;;
20619;SDS011;10469;42.720;23.252;2023-09-08T05:48:15;11.27;;;7.63;;
20619;SDS011;10469;42.720;23.252;2023-09-08T05:50:41;12.57;;;7.82;;
20619;SDS011;10469;42.720;23.252;2023-09-08T05:53:07;16.05;;;7.70;;
20619;SDS011;10469;42.720;23.252;2023-09-08T05:55:33;9.45;;;6.60;;
20619;SDS011;10469;42.720;23.252;2023-09-08T05:57:58;11.45;;;6.95;;
20619;SDS011;10469;42.720;23.252;2023-09-08T06:00:24;11.65;;;6.40;;
20619;SDS011;10469;42.720;23.252;2023-09-08T06:02:49;14.38;;;7.40;;
20619;SDS011;10469;42.720;23.252;2023-09-08T06:05:15;13.65;;;6.95;;
20619;SDS011;10469;42.720;23.252;2023-09-08T06:07:40;11.27;;;6.63;;
20619;SDS011;10469;42.720;23.252;2023-09-08T06:10:06;14.60;;;7.28;;
20619;SDS011;10469;42.720;23.252;2023-09-08T06:12:32;12.80;;;6.95;;
20619;SDS011;10469;42.720;23.252;2023-09-08T06:14:57;12.48;;;6.88;;
20619;SDS011;10469;42.720;23.252;2023-09-08T06:17:23;14.98;;;6.32;;
20619;SDS011;10469;42.720;23.252;2023-09-08T06:19:48;12.38;;;6.20;;
20619;SDS011;10469;42.720;23.252;2023-09-08T06:22:14;12.60;;;6.88;;
20619;SDS011;10469;42.720;23.252;2023-09-08T06:24:39;14.10;;;6.38;;
20619;SDS011;10469;42.720;23.252;2023-09-08T06:27:05;11.80;;;5.70;;
20619;SDS011;10469;42.720;23.252;2023-09-08T06:29:31;8.77;;;5.40;;
20619;SDS011;10469;42.720;23.252;2023-09-08T06:31:57;12.38;;;5.97;;
20619;SDS011;10469;42.720;23.252;2023-09-08T06:34:22;10.20;;;5.60;;
20619;SDS011;10469;42.720;23.252;2023-09-08T06:36:48;12.65;;;5.03;;
20619;SDS011;10469;42.720;23.252;2023-09-08T06:39:14;7.38;;;5.22;;
20619;SDS011;10469;42.720;23.252;2023-09-08T06:41:39;13.35;;;4.95;;
20619;SDS011;10469;42.720;23.252;2023-09-08T06:44:05;8.20;;;5.57;;
20619;SDS011;10469;42.720;23.252;2023-09-08T06:46:30;10.45;;;5.35;;
20619;SDS011;10469;42.720;23.252;2023-09-08T06:48:56;10.85;;;5.38;;
20619;SDS011;10469;42.720;23.252;2023-09-08T06:51:21;10.63;;;4.43;;
20619;SDS011;10469;42.720;23.252;2023-09-08T06:53:56;8.85;;;5.18;;
20619;SDS011;10469;42.720;23.252;2023-09-08T06:56:22;8.80;;;4.75;;
20619;SDS011;10469;42.720;23.252;2023-09-08T06:58:48;12.75;;;7.55;;
20619;SDS011;10469;42.720;23.252;2023-09-08T07:01:14;14.80;;;5.53;;
20619;SDS011;10469;42.720;23.252;2023-09-08T07:03:40;10.82;;;5.18;;
20619;SDS011;10469;42.720;23.252;2023-09-08T07:06:06;5.68;;;4.70;;
20619;SDS011;10469;42.720;23.252;2023-09-08T07:08:31;9.48;;;4.75;;
20619;SDS011;10469;42.720;23.252;2023-09-08T07:10:56;6.43;;;4.18;;
20619;SDS011;10469;42.720;23.252;2023-09-08T07:13:22;7.05;;;3.92;;
20619;SDS011;10469;42.720;23.252;2023-09-08T07:15:47;7.20;;;3.90;;
20619;SDS011;10469;42.720;23.252;2023-09-08T07:18:13;4.53;;;3.92;;
20619;SDS011;10469;42.720;23.252;2023-09-08T07:20:38;8.63;;;3.95;;
20619;SDS011;10469;42.720;23.252;2023-09-08T07:23:04;11.20;;;5.55;;
20619;SDS011;10469;42.720;23.252;2023-09-08T07:25:30;6.03;;;3.65;;
20619;SDS011;10469;42.720;23.252;2023-09-08T07:27:56;8.20;;;4.70;;
20619;SDS011;10469;42.720;23.252;2023-09-08T07:30:21;11.70;;;4.60;;
20619;SDS011;10469;42.720;23.252;2023-09-08T07:32:47;13.45;;;4.57;;
20619;SDS011;10469;42.720;23.252;2023-09-08T07:35:12;17.77;;;4.55;;
20619;SDS011;10469;42.720;23.252;2023-09-08T07:37:40;5.05;;;4.18;;
20619;SDS011;10469;42.720;23.252;2023-09-08T07:40:06;5.55;;;3.60;;
20619;SDS011;10469;42.720;23.252;2023-09-08T07:42:34;5.03;;;3.28;;
20619;SDS011;10469;42.720;23.252;2023-09-08T07:44:59;5.65;;;3.75;;
20619;SDS011;10469;42.720;23.252;2023-09-08T07:47:25;5.63;;;3.63;;
20619;SDS011;10469;42.720;23.252;2023-09-08T07:49:50;6.80;;;3.75;;
20619;SDS011;10469;42.720;23.252;2023-09-08T07:52:16;3.90;;;3.50;;
20619;SDS011;10469;42.720;23.252;2023-09-08T07:54:42;10.48;;;4.22;;
20619;SDS011;10469;42.720;23.252;2023-09-08T07:57:07;7.97;;;3.75;;
20619;SDS011;10469;42.720;23.252;2023-09-08T07:59:33;10.38;;;3.35;;
20619;SDS011;10469;42.720;23.252;2023-09-08T08:01:58;9.98;;;4.40;;
20619;SDS011;10469;42.720;23.252;2023-09-08T08:04:24;4.35;;;3.13;;
20619;SDS011;10469;42.720;23.252;2023-09-08T08:06:49;6.85;;;3.42;;
20619;SDS011;10469;42.720;23.252;2023-09-08T08:09:15;6.35;;;4.10;;
20619;SDS011;10469;42.720;23.252;2023-09-08T08:11:40;6.22;;;3.08;;
20619;SDS011;10469;42.720;23.252;2023-09-08T08:14:06;6.07;;;3.53;;
20619;SDS011;10469;42.720;23.252;2023-09-08T08:16:32;6.60;;;3.22;;
20619;SDS011;10469;42.720;23.252;2023-09-08T08:18:57;8.48;;;3.75;;
20619;SDS011;10469;42.720;23.252;2023-09-08T08:21:24;8.43;;;3.40;;
20619;SDS011;10469;42.720;23.252;2023-09-08T08:23:50;3.90;;;3.20;;
20619;SDS011;10469;42.720;23.252;2023-09-08T08:26:16;5.70;;;3.70;;
20619;SDS011;10469;42.720;23.252;2023-09-08T08:28:42;5.13;;;3.50;;
20619;SDS011;10469;42.720;23.252;2023-09-08T08:31:08;6.38;;;3.20;;
20619;SDS011;10469;42.720;23.252;2023-09-08T08:33:34;4.82;;;3.30;;
20619;SDS011;10469;42.720;23.252;2023-09-08T08:36:02;10.23;;;4.07;;
20619;SDS011;10469;42.720;23.252;2023-09-08T08:38:28;9.65;;;3.70;;
20619;SDS011;10469;42.720;23.252;2023-09-08T08:40:54;7.88;;;3.47;;
20619;SDS011;10469;42.720;23.252;2023-09-08T08:43:20;6.00;;;3.42;;
20619;SDS011;10469;42.720;23.252;2023-09-08T08:45:49;6.20;;;3.08;;
20619;SDS011;10469;42.720;23.252;2023-09-08T08:48:15;4.50;;;3.17;;
20619;SDS011;10469;42.720;23.252;2023-09-08T08:50:45;9.95;;;3.63;;
20619;SDS011;10469;42.720;23.252;2023-09-08T08:53:15;5.90;;;3.40;;
20619;SDS011;10469;42.720;23.252;2023-09-08T08:55:42;7.22;;;3.67;;
20619;SDS011;10469;42.720;23.252;2023-09-08T08:58:09;6.63;;;3.58;;
20619;SDS011;10469;42.720;23.252;2023-09-08T09:00:35;4.88;;;3.40;;
20619;SDS011;10469;42.720;23.252;2023-09-08T09:03:03;5.63;;;4.05;;
20619;SDS011;10469;42.720;23.252;2023-09-08T09:05:31;5.07;;;3.67;;
20619;SDS011;10469;42.720;23.252;2023-09-08T09:08:00;5.72;;;3.30;;
20619;SDS011;10469;42.720;23.252;2023-09-08T09:10:29;4.07;;;3.35;;
20619;SDS011;10469;42.720;23.252;2023-09-08T09:12:57;8.23;;;3.65;;
20619;SDS011;10469;42.720;23.252;2023-09-08T09:15:29;9.75;;;3.70;;
20619;SDS011;10469;42.720;23.252;2023-09-08T09:18:02;7.13;;;3.42;;
20619;SDS011;10469;42.720;23.252;2023-09-08T09:20:29;5.60;;;3.95;;
20619;SDS011;10469;42.720;23.252;2023-09-08T09:22:55;8.88;;;3.55;;
20619;SDS011;10469;42.720;23.252;2023-09-08T09:25:24;9.68;;;3.75;;
20619;SDS011;10469;42.720;23.252;2023-09-08T09:27:54;6.68;;;3.42;;
20619;SDS011;10469;42.720;23.252;2023-09-08T09:30:46;4.05;;;3.65;;
20619;SDS011;10469;42.720;23.252;2023-09-08T09:33:13;10.73;;;4.13;;
20619;SDS011;10469;42.720;23.252;2023-09-08T09:35:43;3.72;;;3.25;;
20619;SDS011;10469;42.720;23.252;2023-09-08T09:38:10;4.82;;;2.92;;
20619;SDS011;10469;42.720;23.252;2023-09-08T09:40:37;8.55;;;3.50;;
20619;SDS011;10469;42.720;23.252;2023-09-08T09:43:04;3.83;;;3.08;;
20619;SDS011;10469;42.720;23.252;2023-09-08T09:45:31;5.18;;;3.80;;
20619;SDS011;10469;42.720;23.252;2023-09-08T09:47:59;5.05;;;3.83;;
20619;SDS011;10469;42.720;23.252;2023-09-08T09:50:28;8.80;;;3.72;;
20619;SDS011;10469;42.720;23.252;2023-09-08T09:52:59;6.22;;;3.60;;
20619;SDS011;10469;42.720;23.252;2023-09-08T09:55:33;5.00;;;3.67;;
20619;SDS011;10469;42.720;23.252;2023-09-08T09:57:59;6.45;;;3.88;;
20619;SDS011;10469;42.720;23.252;2023-09-08T10:00:28;7.97;;;3.97;;
20619;SDS011;10469;42.720;23.252;2023-09-08T10:02:55;5.68;;;3.97;;
20619;SDS011;10469;42.720;23.252;2023-09-08T10:05:23;6.13;;;3.42;;
20619;SDS011;10469;42.720;23.252;2023-09-08T10:07:50;5.25;;;3.35;;
20619;SDS011;10469;42.720;23.252;2023-09-08T10:10:16;8.95;;;4.20;;
20619;SDS011;10469;42.720;23.252;2023-09-08T10:12:43;9.40;;;3.72;;
20619;SDS011;10469;42.720;23.252;2023-09-08T10:15:10;6.78;;;3.90;;
20619;SDS011;10469;42.720;23.252;2023-09-08T10:17:37;6.45;;;4.45;;
20619;SDS011;10469;42.720;23.252;2023-09-08T10:20:03;6.60;;;4.30;;
20619;SDS011;10469;42.720;23.252;2023-09-08T10:22:36;4.63;;;3.70;;
20619;SDS011;10469;42.720;23.252;2023-09-08T10:25:07;5.05;;;3.80;;
20619;SDS011;10469;42.720;23.252;2023-09-08T10:27:33;7.13;;;3.35;;
20619;SDS011;10469;42.720;23.252;2023-09-08T10:30:01;3.75;;;3.42;;
20619;SDS011;10469;42.720;23.252;2023-09-08T10:32:29;5.55;;;3.60;;
20619;SDS011;10469;42.720;23.252;2023-09-08T10:34:56;7.63;;;3.35;;
20619;SDS011;10469;42.720;23.252;2023-09-08T10:37:25;6.47;;;3.90;;
20619;SDS011;10469;42.720;23.252;2023-09-08T10:39:54;4.85;;;3.60;;
20619;SDS011;10469;42.720;23.252;2023-09-08T10:42:21;11.40;;;4.18;;
20619;SDS011;10469;42.720;23.252;2023-09-08T10:47:18;5.28;;;3.70;;
20619;SDS011;10469;42.720;23.252;2023-09-08T10:50:04;7.43;;;3.90;;
20619;SDS011;10469;42.720;23.252;2023-09-08T10:52:30;5.53;;;4.22;;
20619;SDS011;10469;42.720;23.252;2023-09-08T10:54:58;6.85;;;4.30;;
20619;SDS011;10469;42.720;23.252;2023-09-08T10:57:24;4.80;;;3.60;;
20619;SDS011;10469;42.720;23.252;2023-09-08T11:05:10;5.93;;;3.70;;
20619;SDS011;10469;42.720;23.252;2023-09-08T11:07:38;6.10;;;3.83;;
20619;SDS011;10469;42.720;23.252;2023-09-08T11:10:05;9.27;;;3.53;;
20619;SDS011;10469;42.720;23.252;2023-09-08T11:12:31;5.43;;;3.60;;
20619;SDS011;10469;42.720;23.252;2023-09-08T11:14:58;5.50;;;3.72;;
20619;SDS011;10469;42.720;23.252;2023-09-08T11:17:30;4.28;;;3.88;;
20619;SDS011;10469;42.720;23.252;2023-09-08T11:19:56;8.32;;;3.88;;
20619;SDS011;10469;42.720;23.252;2023-09-08T11:22:23;7.18;;;4.05;;
20619;SDS011;10469;42.720;23.252;2023-09-08T11:24:50;6.55;;;3.67;;
20619;SDS011;10469;42.720;23.252;2023-09-08T11:27:17;5.30;;;3.90;;
20619;SDS011;10469;42.720;23.252;2023-09-08T11:29:43;8.68;;;3.88;;
20619;SDS011;10469;42.720;23.252;2023-09-08T11:32:10;4.07;;;3.63;;
20619;SDS011;10469;42.720;23.252;2023-09-08T11:34:36;4.13;;;3.72;;
20619;SDS011;10469;42.720;23.252;2023-09-08T11:37:11;8.00;;;3.83;;
20619;SDS011;10469;42.720;23.252;2023-09-08T11:39:41;17.48;;;10.32;;
20619;SDS011;10469;42.720;23.252;2023-09-08T11:42:14;6.60;;;4.50;;
20619;SDS011;10469;42.720;23.252;2023-09-08T11:44:41;8.50;;;4.20;;
20619;SDS011;10469;42.720;23.252;2023-09-08T11:47:08;4.25;;;3.60;;
20619;SDS011;10469;42.720;23.252;2023-09-08T11:49:35;5.93;;;3.85;;
20619;SDS011;10469;42.720;23.252;2023-09-08T11:52:02;3.75;;;3.35;;
20619;SDS011;10469;42.720;23.252;2023-09-08T11:54:29;9.25;;;3.97;;
20619;SDS011;10469;42.720;23.252;2023-09-08T11:56:56;6.90;;;4.13;;
20619;SDS011;10469;42.720;23.252;2023-09-08T11:59:26;7.72;;;4.00;;
20619;SDS011;10469;42.720;23.252;2023-09-08T12:01:53;6.88;;;4.10;;
20619;SDS011;10469;42.720;23.252;2023-09-08T12:04:19;7.05;;;3.90;;
20619;SDS011;10469;42.720;23.252;2023-09-08T12:06:46;7.95;;;4.10;;
20619;SDS011;10469;42.720;23.252;2023-09-08T12:09:12;7.80;;;3.60;;
20619;SDS011;10469;42.720;23.252;2023-09-08T12:11:39;9.02;;;3.85;;
20619;SDS011;10469;42.720;23.252;2023-09-08T12:14:08;7.38;;;4.43;;
20619;SDS011;10469;42.720;23.252;2023-09-08T12:16:35;9.10;;;4.28;;
20619;SDS011;10469;42.720;23.252;2023-09-08T12:19:00;9.23;;;3.83;;
20619;SDS011;10469;42.720;23.252;2023-09-08T12:21:29;5.28;;;3.70;;
20619;SDS011;10469;42.720;23.252;2023-09-08T12:23:56;7.85;;;4.07;;
20619;SDS011;10469;42.720;23.252;2023-09-08T12:26:24;4.47;;;3.67;;
20619;SDS011;10469;42.720;23.252;2023-09-08T12:28:50;10.23;;;4.03;;
20619;SDS011;10469;42.720;23.252;2023-09-08T12:31:17;9.93;;;4.35;;
20619;SDS011;10469;42.720;23.252;2023-09-08T12:33:43;5.32;;;4.20;;
20619;SDS011;10469;42.720;23.252;2023-09-08T12:38:46;4.68;;;4.00;;
20619;SDS011;10469;42.720;23.252;2023-09-08T12:41:13;4.13;;;3.50;;
20619;SDS011;10469;42.720;23.252;2023-09-08T12:43:38;5.00;;;3.70;;
20619;SDS011;10469;42.720;23.252;2023-09-08T12:46:04;9.07;;;4.07;;
20619;SDS011;10469;42.720;23.252;2023-09-08T12:48:30;9.07;;;4.13;;
20619;SDS011;10469;42.720;23.252;2023-09-08T12:50:55;5.07;;;3.80;;
20619;SDS011;10469;42.720;23.252;2023-09-08T12:53:21;4.70;;;3.50;;
20619;SDS011;10469;42.720;23.252;2023-09-08T12:55:48;4.68;;;3.75;;
20619;SDS011;10469;42.720;23.252;2023-09-08T12:58:14;5.88;;;3.75;;
20619;SDS011;10469;42.720;23.252;2023-09-08T13:00:40;6.00;;;4.15;;
20619;SDS011;10469;42.720;23.252;2023-09-08T13:03:05;5.57;;;3.97;;
20619;SDS011;10469;42.720;23.252;2023-09-08T13:05:30;5.45;;;4.07;;
20619;SDS011;10469;42.720;23.252;2023-09-08T13:07:56;8.02;;;3.92;;
20619;SDS011;10469;42.720;23.252;2023-09-08T13:10:21;5.55;;;4.40;;
20619;SDS011;10469;42.720;23.252;2023-09-08T13:12:47;7.20;;;4.07;;
20619;SDS011;10469;42.720;23.252;2023-09-08T13:15:13;9.80;;;3.70;;
20619;SDS011;10469;42.720;23.252;2023-09-08T13:17:39;7.72;;;4.00;;
20619;SDS011;10469;42.720;23.252;2023-09-08T13:20:05;7.25;;;3.83;;
20619;SDS011;10469;42.720;23.252;2023-09-08T13:22:31;4.90;;;3.78;;
20619;SDS011;10469;42.720;23.252;2023-09-08T13:24:57;6.35;;;4.25;;
20619;SDS011;10469;42.720;23.252;2023-09-08T13:27:22;4.30;;;3.70;;
20619;SDS011;10469;42.720;23.252;2023-09-08T13:29:48;5.47;;;3.45;;
20619;SDS011;10469;42.720;23.252;2023-09-08T13:32:14;8.00;;;4.05;;
20619;SDS011;10469;42.720;23.252;2023-09-08T13:34:39;13.50;;;4.30;;
20619;SDS011;10469;42.720;23.252;2023-09-08T13:37:05;4.90;;;3.83;;
20619;SDS011;10469;42.720;23.252;2023-09-08T13:39:30;5.55;;;3.78;;
20619;SDS011;10469;42.720;23.252;2023-09-08T13:41:59;4.25;;;3.50;;
20619;SDS011;10469;42.720;23.252;2023-09-08T13:44:25;5.10;;;3.85;;
20619;SDS011;10469;42.720;23.252;2023-09-08T13:46:51;6.47;;;4.07;;
20619;SDS011;10469;42.720;23.252;2023-09-08T13:49:19;9.73;;;4.05;;
20619;SDS011;10469;42.720;23.252;2023-09-08T13:51:45;6.97;;;3.50;;
20619;SDS011;10469;42.720;23.252;2023-09-08T13:54:11;5.70;;;4.05;;
20619;SDS011;10469;42.720;23.252;2023-09-08T13:56:40;7.70;;;4.10;;
20619;SDS011;10469;42.720;23.252;2023-09-08T13:59:06;8.45;;;3.70;;
20619;SDS011;10469;42.720;23.252;2023-09-08T14:01:33;6.05;;;3.35;;
20619;SDS011;10469;42.720;23.252;2023-09-08T14:03:59;5.10;;;3.50;;
20619;SDS011;10469;42.720;23.252;2023-09-08T14:06:26;6.28;;;3.50;;
20619;SDS011;10469;42.720;23.252;2023-09-08T14:08:52;7.22;;;3.65;;
20619;SDS011;10469;42.720;23.252;2023-09-08T14:11:18;9.48;;;3.92;;
20619;SDS011;10469;42.720;23.252;2023-09-08T14:13:44;8.80;;;3.70;;
20619;SDS011;10469;42.720;23.252;2023-09-08T14:16:10;4.70;;;3.30;;
20619;SDS011;10469;42.720;23.252;2023-09-08T14:18:37;7.22;;;3.78;;
20619;SDS011;10469;42.720;23.252;2023-09-08T14:21:02;8.70;;;3.90;;
20619;SDS011;10469;42.720;23.252;2023-09-08T14:23:29;6.45;;;3.45;;
20619;SDS011;10469;42.720;23.252;2023-09-08T14:25:54;5.55;;;3.45;;
20619;SDS011;10469;42.720;23.252;2023-09-08T14:28:20;8.10;;;3.80;;
20619;SDS011;10469;42.720;23.252;2023-09-08T14:30:46;10.68;;;3.65;;
20619;SDS011;10469;42.720;23.252;2023-09-08T14:33:11;7.70;;;3.63;;
20619;SDS011;10469;42.720;23.252;2023-09-08T14:35:40;5.15;;;3.97;;
20619;SDS011;10469;42.720;23.252;2023-09-08T14:38:07;9.65;;;3.60;;